sensor_id;sensor_type;location;lat;lon;timestamp;P1;durP1;ratioP1;P2;durP2;ratioP2
30505;SDS011;17292;51.600;4.994;2023-03-23T00:00:01;12.45;;;3.13;;
30505;SDS011;17292;51.600;4.994;2023-03-23T00:02:30;11.57;;;3.78;;
30505;SDS011;17292;51.600;4.994;2023-03-23T00:05:04;11.23;;;3.00;;
30505;SDS011;17292;51.600;4.994;2023-03-23T00:07:31;12.75;;;3.60;;
30505;SDS011;17292;51.600;4.994;2023-03-23T00:09:58;9.60;;;3.55;;
30505;SDS011;17292;51.600;4.994;2023-03-23T00:12:27;15.77;;;3.70;;
30505;SDS011;17292;51.600;4.994;2023-03-23T00:14:58;11.15;;;3.30;;
30505;SDS011;17292;51.600;4.994;2023-03-23T00:17:25;10.32;;;3.13;;
30505;SDS011;17292;51.600;4.994;2023-03-23T00:19:52;8.18;;;3.30;;
30505;SDS011;17292;51.600;4.994;2023-03-23T00:22:18;14.95;;;3.35;;
30505;SDS011;17292;51.600;4.994;2023-03-23T00:24:46;14.25;;;3.70;;
30505;SDS011;17292;51.600;4.994;2023-03-23T00:27:12;14.00;;;3.65;;
30505;SDS011;17292;51.600;4.994;2023-03-23T00:29:39;12.88;;;3.20;;
30505;SDS011;17292;51.600;4.994;2023-03-23T00:32:07;11.75;;;3.45;;
30505;SDS011;17292;51.600;4.994;2023-03-23T00:34:38;11.88;;;3.70;;
30505;SDS011;17292;51.600;4.994;2023-03-23T00:37:05;11.85;;;3.80;;
30505;SDS011;17292;51.600;4.994;2023-03-23T00:39:32;9.57;;;3.28;;
30505;SDS011;17292;51.600;4.994;2023-03-23T00:41:58;10.73;;;3.35;;
30505;SDS011;17292;51.600;4.994;2023-03-23T00:44:28;10.40;;;3.47;;
30505;SDS011;17292;51.600;4.994;2023-03-23T00:46:55;13.02;;;3.60;;
30505;SDS011;17292;51.600;4.994;2023-03-23T00:49:22;12.13;;;3.50;;
30505;SDS011;17292;51.600;4.994;2023-03-23T00:51:50;10.07;;;3.55;;
30505;SDS011;17292;51.600;4.994;2023-03-23T00:54:16;17.02;;;3.70;;
30505;SDS011;17292;51.600;4.994;2023-03-23T00:56:42;12.18;;;3.70;;
30505;SDS011;17292;51.600;4.994;2023-03-23T00:59:08;16.90;;;4.13;;
30505;SDS011;17292;51.600;4.994;2023-03-23T01:01:35;11.52;;;2.97;;
30505;SDS011;17292;51.600;4.994;2023-03-23T01:04:01;12.23;;;3.50;;
30505;SDS011;17292;51.600;4.994;2023-03-23T01:06:29;13.32;;;3.38;;
30505;SDS011;17292;51.600;4.994;2023-03-23T01:08:56;11.60;;;3.20;;
30505;SDS011;17292;51.600;4.994;2023-03-23T01:11:22;10.98;;;3.25;;
30505;SDS011;17292;51.600;4.994;2023-03-23T01:13:49;9.82;;;3.20;;
30505;SDS011;17292;51.600;4.994;2023-03-23T01:16:17;9.38;;;3.15;;
30505;SDS011;17292;51.600;4.994;2023-03-23T01:18:43;9.55;;;3.35;;
30505;SDS011;17292;51.600;4.994;2023-03-23T01:21:10;8.77;;;3.00;;
30505;SDS011;17292;51.600;4.994;2023-03-23T01:23:37;9.45;;;3.40;;
30505;SDS011;17292;51.600;4.994;2023-03-23T01:26:04;10.75;;;2.90;;
30505;SDS011;17292;51.600;4.994;2023-03-23T01:28:30;10.77;;;3.50;;
30505;SDS011;17292;51.600;4.994;2023-03-23T01:31:03;9.25;;;3.00;;
30505;SDS011;17292;51.600;4.994;2023-03-23T01:33:30;13.23;;;3.15;;
30505;SDS011;17292;51.600;4.994;2023-03-23T01:35:57;10.52;;;3.40;;
30505;SDS011;17292;51.600;4.994;2023-03-23T01:38:23;10.23;;;3.25;;
30505;SDS011;17292;51.600;4.994;2023-03-23T01:40:49;14.30;;;3.63;;
30505;SDS011;17292;51.600;4.994;2023-03-23T01:43:15;12.93;;;3.72;;
30505;SDS011;17292;51.600;4.994;2023-03-23T01:45:41;11.18;;;3.00;;
30505;SDS011;17292;51.600;4.994;2023-03-23T01:48:18;7.68;;;3.20;;
30505;SDS011;17292;51.600;4.994;2023-03-23T01:53:12;12.45;;;3.60;;
30505;SDS011;17292;51.600;4.994;2023-03-23T01:55:39;12.00;;;3.10;;
30505;SDS011;17292;51.600;4.994;2023-03-23T01:58:06;12.20;;;3.22;;
30505;SDS011;17292;51.600;4.994;2023-03-23T02:00:34;8.75;;;3.33;;
30505;SDS011;17292;51.600;4.994;2023-03-23T02:03:02;11.23;;;3.05;;
30505;SDS011;17292;51.600;4.994;2023-03-23T02:05:38;12.35;;;3.60;;
30505;SDS011;17292;51.600;4.994;2023-03-23T02:08:05;9.40;;;3.33;;
30505;SDS011;17292;51.600;4.994;2023-03-23T02:10:33;10.30;;;3.00;;
30505;SDS011;17292;51.600;4.994;2023-03-23T02:13:00;11.23;;;2.88;;
30505;SDS011;17292;51.600;4.994;2023-03-23T02:15:29;13.40;;;3.47;;
30505;SDS011;17292;51.600;4.994;2023-03-23T02:18:05;8.77;;;3.13;;
30505;SDS011;17292;51.600;4.994;2023-03-23T02:33:58;10.70;;;3.42;;
30505;SDS011;17292;51.600;4.994;2023-03-23T02:36:35;7.97;;;3.13;;
30505;SDS011;17292;51.600;4.994;2023-03-23T02:39:05;7.78;;;3.00;;
30505;SDS011;17292;51.600;4.994;2023-03-23T02:41:45;11.82;;;3.38;;
30505;SDS011;17292;51.600;4.994;2023-03-23T02:44:12;8.30;;;3.70;;
30505;SDS011;17292;51.600;4.994;2023-03-23T02:46:39;10.10;;;2.78;;
30505;SDS011;17292;51.600;4.994;2023-03-23T02:49:06;8.00;;;3.17;;
30505;SDS011;17292;51.600;4.994;2023-03-23T02:51:33;12.77;;;2.88;;
30505;SDS011;17292;51.600;4.994;2023-03-23T02:54:00;9.98;;;3.70;;
30505;SDS011;17292;51.600;4.994;2023-03-23T02:56:27;11.00;;;3.05;;
30505;SDS011;17292;51.600;4.994;2023-03-23T02:58:54;9.68;;;2.78;;
30505;SDS011;17292;51.600;4.994;2023-03-23T03:03:54;14.07;;;3.42;;
30505;SDS011;17292;51.600;4.994;2023-03-23T03:09:19;13.00;;;3.15;;
30505;SDS011;17292;51.600;4.994;2023-03-23T03:11:47;10.93;;;3.47;;
30505;SDS011;17292;51.600;4.994;2023-03-23T03:14:19;11.27;;;3.00;;
30505;SDS011;17292;51.600;4.994;2023-03-23T03:16:52;7.82;;;2.97;;
30505;SDS011;17292;51.600;4.994;2023-03-23T03:19:22;13.20;;;3.38;;
30505;SDS011;17292;51.600;4.994;2023-03-23T03:21:51;8.00;;;2.83;;
30505;SDS011;17292;51.600;4.994;2023-03-23T03:24:18;5.88;;;2.65;;
30505;SDS011;17292;51.600;4.994;2023-03-23T03:26:46;11.23;;;3.30;;
30505;SDS011;17292;51.600;4.994;2023-03-23T03:29:14;5.88;;;2.33;;
30505;SDS011;17292;51.600;4.994;2023-03-23T03:31:42;10.75;;;2.83;;
30505;SDS011;17292;51.600;4.994;2023-03-23T03:34:13;10.32;;;3.15;;
30505;SDS011;17292;51.600;4.994;2023-03-23T03:36:43;9.70;;;3.20;;
30505;SDS011;17292;51.600;4.994;2023-03-23T03:39:10;12.63;;;3.42;;
30505;SDS011;17292;51.600;4.994;2023-03-23T03:41:37;11.95;;;3.17;;
30505;SDS011;17292;51.600;4.994;2023-03-23T03:44:04;9.88;;;3.28;;
30505;SDS011;17292;51.600;4.994;2023-03-23T03:46:32;6.28;;;2.78;;
30505;SDS011;17292;51.600;4.994;2023-03-23T03:48:58;7.78;;;3.22;;
30505;SDS011;17292;51.600;4.994;2023-03-23T03:51:25;11.50;;;2.92;;
30505;SDS011;17292;51.600;4.994;2023-03-23T03:53:52;6.55;;;2.72;;
30505;SDS011;17292;51.600;4.994;2023-03-23T03:56:18;6.38;;;3.05;;
30505;SDS011;17292;51.600;4.994;2023-03-23T03:58:48;6.65;;;2.80;;
30505;SDS011;17292;51.600;4.994;2023-03-23T04:01:15;10.98;;;3.20;;
30505;SDS011;17292;51.600;4.994;2023-03-23T04:03:41;9.95;;;3.28;;
30505;SDS011;17292;51.600;4.994;2023-03-23T04:06:08;12.15;;;3.75;;
30505;SDS011;17292;51.600;4.994;2023-03-23T04:08:35;8.63;;;3.10;;
30505;SDS011;17292;51.600;4.994;2023-03-23T04:11:03;9.07;;;3.80;;
30505;SDS011;17292;51.600;4.994;2023-03-23T04:13:29;8.95;;;2.70;;
30505;SDS011;17292;51.600;4.994;2023-03-23T04:15:55;8.80;;;3.30;;
30505;SDS011;17292;51.600;4.994;2023-03-23T04:18:22;9.27;;;2.80;;
30505;SDS011;17292;51.600;4.994;2023-03-23T04:20:49;8.60;;;3.15;;
30505;SDS011;17292;51.600;4.994;2023-03-23T04:23:16;10.75;;;3.20;;
30505;SDS011;17292;51.600;4.994;2023-03-23T04:25:48;7.13;;;3.20;;
30505;SDS011;17292;51.600;4.994;2023-03-23T04:28:15;8.82;;;3.03;;
30505;SDS011;17292;51.600;4.994;2023-03-23T04:30:43;6.72;;;2.70;;
30505;SDS011;17292;51.600;4.994;2023-03-23T04:33:10;7.07;;;2.67;;
30505;SDS011;17292;51.600;4.994;2023-03-23T04:35:41;10.65;;;3.10;;
30505;SDS011;17292;51.600;4.994;2023-03-23T04:38:08;10.48;;;2.95;;
30505;SDS011;17292;51.600;4.994;2023-03-23T04:40:38;8.48;;;2.80;;
30505;SDS011;17292;51.600;4.994;2023-03-23T04:43:05;8.82;;;3.30;;
30505;SDS011;17292;51.600;4.994;2023-03-23T04:45:32;7.20;;;3.03;;
30505;SDS011;17292;51.600;4.994;2023-03-23T04:47:59;8.93;;;2.65;;
30505;SDS011;17292;51.600;4.994;2023-03-23T04:50:29;6.10;;;2.50;;
30505;SDS011;17292;51.600;4.994;2023-03-23T04:52:57;8.35;;;3.15;;
30505;SDS011;17292;51.600;4.994;2023-03-23T04:55:29;6.90;;;2.92;;
30505;SDS011;17292;51.600;4.994;2023-03-23T04:57:55;5.60;;;2.85;;
30505;SDS011;17292;51.600;4.994;2023-03-23T05:00:21;8.52;;;3.25;;
30505;SDS011;17292;51.600;4.994;2023-03-23T05:02:47;10.02;;;2.92;;
30505;SDS011;17292;51.600;4.994;2023-03-23T05:05:16;7.65;;;2.83;;
30505;SDS011;17292;51.600;4.994;2023-03-23T05:07:42;11.00;;;3.35;;
30505;SDS011;17292;51.600;4.994;2023-03-23T05:10:10;6.63;;;2.65;;
30505;SDS011;17292;51.600;4.994;2023-03-23T05:12:37;9.27;;;3.00;;
30505;SDS011;17292;51.600;4.994;2023-03-23T05:15:03;10.15;;;2.65;;
30505;SDS011;17292;51.600;4.994;2023-03-23T05:17:29;12.57;;;3.15;;
30505;SDS011;17292;51.600;4.994;2023-03-23T05:19:57;10.10;;;2.83;;
30505;SDS011;17292;51.600;4.994;2023-03-23T05:22:23;6.82;;;2.67;;
30505;SDS011;17292;51.600;4.994;2023-03-23T05:24:49;9.70;;;3.20;;
30505;SDS011;17292;51.600;4.994;2023-03-23T05:27:17;6.25;;;2.78;;
30505;SDS011;17292;51.600;4.994;2023-03-23T05:29:44;11.50;;;3.40;;
30505;SDS011;17292;51.600;4.994;2023-03-23T05:32:13;5.05;;;2.90;;
30505;SDS011;17292;51.600;4.994;2023-03-23T05:34:40;9.20;;;3.20;;
30505;SDS011;17292;51.600;4.994;2023-03-23T05:37:08;8.18;;;2.80;;
30505;SDS011;17292;51.600;4.994;2023-03-23T05:39:35;7.82;;;3.00;;
30505;SDS011;17292;51.600;4.994;2023-03-23T05:42:01;8.82;;;3.33;;
30505;SDS011;17292;51.600;4.994;2023-03-23T05:44:27;9.70;;;3.13;;
30505;SDS011;17292;51.600;4.994;2023-03-23T05:46:54;7.70;;;3.15;;
30505;SDS011;17292;51.600;4.994;2023-03-23T05:49:20;5.50;;;2.85;;
30505;SDS011;17292;51.600;4.994;2023-03-23T05:51:47;7.63;;;2.88;;
30505;SDS011;17292;51.600;4.994;2023-03-23T05:54:15;8.77;;;3.10;;
30505;SDS011;17292;51.600;4.994;2023-03-23T05:56:41;8.98;;;2.78;;
30505;SDS011;17292;51.600;4.994;2023-03-23T05:59:08;8.50;;;2.78;;
30505;SDS011;17292;51.600;4.994;2023-03-23T06:01:37;6.00;;;2.40;;
30505;SDS011;17292;51.600;4.994;2023-03-23T06:04:04;12.65;;;2.95;;
30505;SDS011;17292;51.600;4.994;2023-03-23T06:06:30;8.70;;;3.10;;
30505;SDS011;17292;51.600;4.994;2023-03-23T06:08:57;6.90;;;3.03;;
30505;SDS011;17292;51.600;4.994;2023-03-23T06:11:24;14.43;;;3.03;;
30505;SDS011;17292;51.600;4.994;2023-03-23T06:13:51;14.02;;;3.55;;
30505;SDS011;17292;51.600;4.994;2023-03-23T06:16:18;14.52;;;3.53;;
30505;SDS011;17292;51.600;4.994;2023-03-23T06:18:45;28.02;;;4.13;;
30505;SDS011;17292;51.600;4.994;2023-03-23T06:21:11;16.65;;;3.65;;
30505;SDS011;17292;51.600;4.994;2023-03-23T06:23:37;24.35;;;3.83;;
30505;SDS011;17292;51.600;4.994;2023-03-23T06:26:05;19.63;;;3.75;;
30505;SDS011;17292;51.600;4.994;2023-03-23T06:28:32;20.52;;;3.97;;
30505;SDS011;17292;51.600;4.994;2023-03-23T06:30:59;12.70;;;3.45;;
30505;SDS011;17292;51.600;4.994;2023-03-23T06:33:26;23.38;;;3.67;;
30505;SDS011;17292;51.600;4.994;2023-03-23T06:35:52;25.40;;;4.25;;
30505;SDS011;17292;51.600;4.994;2023-03-23T06:38:19;16.05;;;3.83;;
30505;SDS011;17292;51.600;4.994;2023-03-23T06:40:45;19.50;;;3.70;;
30505;SDS011;17292;51.600;4.994;2023-03-23T06:43:12;29.50;;;4.90;;
30505;SDS011;17292;51.600;4.994;2023-03-23T06:45:39;36.55;;;5.32;;
30505;SDS011;17292;51.600;4.994;2023-03-23T06:48:05;31.17;;;4.38;;
30505;SDS011;17292;51.600;4.994;2023-03-23T06:50:32;26.23;;;4.25;;
30505;SDS011;17292;51.600;4.994;2023-03-23T06:52:58;36.15;;;4.72;;
30505;SDS011;17292;51.600;4.994;2023-03-23T06:55:25;36.58;;;5.28;;
30505;SDS011;17292;51.600;4.994;2023-03-23T06:57:51;29.90;;;4.15;;
30505;SDS011;17292;51.600;4.994;2023-03-23T07:00:17;31.40;;;4.63;;
30505;SDS011;17292;51.600;4.994;2023-03-23T07:02:43;19.70;;;3.40;;
30505;SDS011;17292;51.600;4.994;2023-03-23T07:05:10;25.60;;;4.57;;
30505;SDS011;17292;51.600;4.994;2023-03-23T07:07:37;22.08;;;4.75;;
30505;SDS011;17292;51.600;4.994;2023-03-23T07:10:05;34.13;;;4.82;;
30505;SDS011;17292;51.600;4.994;2023-03-23T07:12:31;29.17;;;4.65;;
30505;SDS011;17292;51.600;4.994;2023-03-23T07:14:58;28.17;;;3.90;;
30505;SDS011;17292;51.600;4.994;2023-03-23T07:17:24;29.45;;;4.80;;
30505;SDS011;17292;51.600;4.994;2023-03-23T07:19:50;27.02;;;4.80;;
30505;SDS011;17292;51.600;4.994;2023-03-23T07:22:17;26.90;;;4.82;;
30505;SDS011;17292;51.600;4.994;2023-03-23T07:24:43;25.60;;;4.25;;
30505;SDS011;17292;51.600;4.994;2023-03-23T07:27:09;34.92;;;4.55;;
30505;SDS011;17292;51.600;4.994;2023-03-23T07:29:35;28.67;;;3.60;;
30505;SDS011;17292;51.600;4.994;2023-03-23T07:32:04;30.38;;;3.95;;
30505;SDS011;17292;51.600;4.994;2023-03-23T07:34:30;28.60;;;4.85;;
30505;SDS011;17292;51.600;4.994;2023-03-23T07:36:57;30.95;;;4.43;;
30505;SDS011;17292;51.600;4.994;2023-03-23T07:39:24;32.80;;;5.07;;
30505;SDS011;17292;51.600;4.994;2023-03-23T07:41:51;24.55;;;4.40;;
30505;SDS011;17292;51.600;4.994;2023-03-23T07:44:17;27.75;;;4.43;;
30505;SDS011;17292;51.600;4.994;2023-03-23T07:46:43;32.35;;;4.88;;
30505;SDS011;17292;51.600;4.994;2023-03-23T07:49:09;47.25;;;5.45;;
30505;SDS011;17292;51.600;4.994;2023-03-23T07:51:36;55.53;;;6.32;;
30505;SDS011;17292;51.600;4.994;2023-03-23T07:54:03;35.30;;;6.30;;
30505;SDS011;17292;51.600;4.994;2023-03-23T07:56:31;27.25;;;5.10;;
30505;SDS011;17292;51.600;4.994;2023-03-23T07:58:58;29.33;;;4.60;;
30505;SDS011;17292;51.600;4.994;2023-03-23T08:01:24;29.33;;;4.97;;
30505;SDS011;17292;51.600;4.994;2023-03-23T08:03:50;29.20;;;4.55;;
30505;SDS011;17292;51.600;4.994;2023-03-23T08:06:17;16.02;;;3.42;;
30505;SDS011;17292;51.600;4.994;2023-03-23T08:08:43;24.05;;;4.28;;
30505;SDS011;17292;51.600;4.994;2023-03-23T08:11:10;20.42;;;3.85;;
30505;SDS011;17292;51.600;4.994;2023-03-23T08:13:37;19.52;;;4.03;;
30505;SDS011;17292;51.600;4.994;2023-03-23T08:16:03;14.57;;;3.80;;
30505;SDS011;17292;51.600;4.994;2023-03-23T08:18:30;27.83;;;4.18;;
30505;SDS011;17292;51.600;4.994;2023-03-23T08:20:57;27.48;;;4.13;;
30505;SDS011;17292;51.600;4.994;2023-03-23T08:23:24;22.60;;;4.00;;
30505;SDS011;17292;51.600;4.994;2023-03-23T08:25:50;23.17;;;4.05;;
30505;SDS011;17292;51.600;4.994;2023-03-23T08:28:16;16.85;;;3.45;;
30505;SDS011;17292;51.600;4.994;2023-03-23T08:30:42;23.75;;;4.00;;
30505;SDS011;17292;51.600;4.994;2023-03-23T08:33:09;23.80;;;4.50;;
30505;SDS011;17292;51.600;4.994;2023-03-23T08:35:35;26.13;;;3.70;;
30505;SDS011;17292;51.600;4.994;2023-03-23T08:38:02;25.42;;;4.32;;
30505;SDS011;17292;51.600;4.994;2023-03-23T08:40:29;25.90;;;4.63;;
30505;SDS011;17292;51.600;4.994;2023-03-23T08:42:55;23.92;;;4.22;;
30505;SDS011;17292;51.600;4.994;2023-03-23T08:45:22;15.40;;;3.78;;
30505;SDS011;17292;51.600;4.994;2023-03-23T08:47:48;29.15;;;3.88;;
30505;SDS011;17292;51.600;4.994;2023-03-23T08:50:18;20.42;;;4.78;;
30505;SDS011;17292;51.600;4.994;2023-03-23T08:52:44;27.40;;;5.22;;
30505;SDS011;17292;51.600;4.994;2023-03-23T08:55:10;17.90;;;4.45;;
30505;SDS011;17292;51.600;4.994;2023-03-23T08:57:37;32.30;;;4.40;;
30505;SDS011;17292;51.600;4.994;2023-03-23T09:00:06;26.88;;;4.05;;
30505;SDS011;17292;51.600;4.994;2023-03-23T09:02:41;21.67;;;3.72;;
30505;SDS011;17292;51.600;4.994;2023-03-23T09:05:08;26.80;;;4.82;;
30505;SDS011;17292;51.600;4.994;2023-03-23T09:07:36;28.27;;;4.35;;
30505;SDS011;17292;51.600;4.994;2023-03-23T09:10:02;29.83;;;4.43;;
30505;SDS011;17292;51.600;4.994;2023-03-23T09:12:28;26.67;;;4.32;;
30505;SDS011;17292;51.600;4.994;2023-03-23T09:14:55;36.88;;;4.45;;
30505;SDS011;17292;51.600;4.994;2023-03-23T09:17:22;43.28;;;6.15;;
30505;SDS011;17292;51.600;4.994;2023-03-23T09:19:48;44.20;;;6.82;;
30505;SDS011;17292;51.600;4.994;2023-03-23T09:22:14;34.30;;;5.10;;
30505;SDS011;17292;51.600;4.994;2023-03-23T09:24:44;25.23;;;4.82;;
30505;SDS011;17292;51.600;4.994;2023-03-23T09:27:11;16.88;;;3.92;;
30505;SDS011;17292;51.600;4.994;2023-03-23T09:29:37;24.95;;;4.45;;
30505;SDS011;17292;51.600;4.994;2023-03-23T09:32:04;27.67;;;4.93;;
30505;SDS011;17292;51.600;4.994;2023-03-23T09:34:30;27.98;;;4.40;;
30505;SDS011;17292;51.600;4.994;2023-03-23T09:37:00;28.80;;;4.55;;
30505;SDS011;17292;51.600;4.994;2023-03-23T09:39:29;28.77;;;4.50;;
30505;SDS011;17292;51.600;4.994;2023-03-23T09:50:07;39.60;;;5.43;;
30505;SDS011;17292;51.600;4.994;2023-03-23T09:55:01;25.70;;;5.32;;
30505;SDS011;17292;51.600;4.994;2023-03-23T10:00:10;22.30;;;3.85;;
30505;SDS011;17292;51.600;4.994;2023-03-23T10:05:17;29.05;;;4.05;;
30505;SDS011;17292;51.600;4.994;2023-03-23T10:07:44;31.30;;;5.10;;
30505;SDS011;17292;51.600;4.994;2023-03-23T10:10:12;34.60;;;4.72;;
30505;SDS011;17292;51.600;4.994;2023-03-23T10:15:36;37.78;;;5.40;;
30505;SDS011;17292;51.600;4.994;2023-03-23T10:18:08;30.65;;;4.40;;
30505;SDS011;17292;51.600;4.994;2023-03-23T10:25:29;32.17;;;4.95;;
30505;SDS011;17292;51.600;4.994;2023-03-23T10:30:39;27.77;;;4.93;;
30505;SDS011;17292;51.600;4.994;2023-03-23T10:33:12;34.67;;;5.78;;
30505;SDS011;17292;51.600;4.994;2023-03-23T10:35:47;29.38;;;4.70;;
30505;SDS011;17292;51.600;4.994;2023-03-23T10:38:25;34.30;;;5.50;;
30505;SDS011;17292;51.600;4.994;2023-03-23T10:41:02;23.10;;;4.35;;
30505;SDS011;17292;51.600;4.994;2023-03-23T10:43:30;33.80;;;4.75;;
30505;SDS011;17292;51.600;4.994;2023-03-23T10:45:58;31.63;;;4.40;;
30505;SDS011;17292;51.600;4.994;2023-03-23T10:48:30;25.27;;;4.90;;
30505;SDS011;17292;51.600;4.994;2023-03-23T10:50:58;33.53;;;4.93;;
30505;SDS011;17292;51.600;4.994;2023-03-23T10:53:36;24.58;;;4.65;;
30505;SDS011;17292;51.600;4.994;2023-03-23T10:56:03;29.70;;;4.38;;
30505;SDS011;17292;51.600;4.994;2023-03-23T10:58:30;34.03;;;5.15;;
30505;SDS011;17292;51.600;4.994;2023-03-23T11:00:58;34.58;;;4.90;;
30505;SDS011;17292;51.600;4.994;2023-03-23T11:03:47;25.80;;;5.05;;
30505;SDS011;17292;51.600;4.994;2023-03-23T11:06:23;39.03;;;5.60;;
30505;SDS011;17292;51.600;4.994;2023-03-23T11:08:57;36.47;;;4.97;;
30505;SDS011;17292;51.600;4.994;2023-03-23T11:11:28;39.05;;;5.85;;
30505;SDS011;17292;51.600;4.994;2023-03-23T11:16:43;28.77;;;4.82;;
30505;SDS011;17292;51.600;4.994;2023-03-23T11:19:14;42.55;;;5.97;;
30505;SDS011;17292;51.600;4.994;2023-03-23T11:21:40;43.80;;;6.70;;
30505;SDS011;17292;51.600;4.994;2023-03-23T11:24:11;33.63;;;5.28;;
30505;SDS011;17292;51.600;4.994;2023-03-23T11:26:38;30.13;;;5.65;;
30505;SDS011;17292;51.600;4.994;2023-03-23T11:29:42;59.03;;;6.18;;
30505;SDS011;17292;51.600;4.994;2023-03-23T11:34:30;39.80;;;5.95;;
30505;SDS011;17292;51.600;4.994;2023-03-23T11:37:00;42.47;;;6.20;;
30505;SDS011;17292;51.600;4.994;2023-03-23T11:39:28;35.40;;;5.47;;
30505;SDS011;17292;51.600;4.994;2023-03-23T11:41:55;52.55;;;5.88;;
30505;SDS011;17292;51.600;4.994;2023-03-23T11:44:23;42.40;;;5.13;;
30505;SDS011;17292;51.600;4.994;2023-03-23T11:49:39;28.25;;;4.78;;
30505;SDS011;17292;51.600;4.994;2023-03-23T11:52:16;32.53;;;5.05;;
30505;SDS011;17292;51.600;4.994;2023-03-23T11:57:41;38.90;;;5.13;;
30505;SDS011;17292;51.600;4.994;2023-03-23T12:00:15;46.90;;;6.38;;
30505;SDS011;17292;51.600;4.994;2023-03-23T12:05:22;33.67;;;5.15;;
30505;SDS011;17292;51.600;4.994;2023-03-23T12:10:23;31.67;;;4.75;;
30505;SDS011;17292;51.600;4.994;2023-03-23T12:28:01;56.03;;;6.30;;
30505;SDS011;17292;51.600;4.994;2023-03-23T12:40:33;37.70;;;5.85;;
30505;SDS011;17292;51.600;4.994;2023-03-23T12:48:04;34.38;;;5.30;;
30505;SDS011;17292;51.600;4.994;2023-03-23T12:50:42;44.28;;;7.03;;
30505;SDS011;17292;51.600;4.994;2023-03-23T12:53:14;47.65;;;6.70;;
30505;SDS011;17292;51.600;4.994;2023-03-23T12:55:45;52.42;;;6.53;;
30505;SDS011;17292;51.600;4.994;2023-03-23T12:58:14;41.40;;;6.32;;
30505;SDS011;17292;51.600;4.994;2023-03-23T13:00:58;46.75;;;5.75;;
30505;SDS011;17292;51.600;4.994;2023-03-23T13:08:30;31.83;;;5.25;;
30505;SDS011;17292;51.600;4.994;2023-03-23T13:10:59;33.85;;;5.72;;
30505;SDS011;17292;51.600;4.994;2023-03-23T13:13:45;32.05;;;6.07;;
30505;SDS011;17292;51.600;4.994;2023-03-23T13:22:13;43.17;;;6.90;;
30505;SDS011;17292;51.600;4.994;2023-03-23T13:24:14;47.10;;;6.38;;
30505;SDS011;17292;51.600;4.994;2023-03-23T13:26:42;54.05;;;6.35;;
30505;SDS011;17292;51.600;4.994;2023-03-23T13:29:13;38.63;;;7.00;;
30505;SDS011;17292;51.600;4.994;2023-03-23T13:31:40;53.10;;;8.10;;
30505;SDS011;17292;51.600;4.994;2023-03-23T13:34:22;47.03;;;6.63;;
30505;SDS011;17292;51.600;4.994;2023-03-23T13:37:03;63.13;;;7.18;;
30505;SDS011;17292;51.600;4.994;2023-03-23T13:44:44;65.13;;;7.40;;
30505;SDS011;17292;51.600;4.994;2023-03-23T13:49:59;51.92;;;6.70;;
30505;SDS011;17292;51.600;4.994;2023-03-23T14:06:11;40.60;;;7.18;;
30505;SDS011;17292;51.600;4.994;2023-03-23T14:10:43;44.15;;;6.32;;
30505;SDS011;17292;51.600;4.994;2023-03-23T14:13:14;41.83;;;6.13;;
30505;SDS011;17292;51.600;4.994;2023-03-23T14:15:44;44.10;;;6.22;;
30505;SDS011;17292;51.600;4.994;2023-03-23T14:18:19;38.00;;;5.43;;
30505;SDS011;17292;51.600;4.994;2023-03-23T14:20:48;42.22;;;6.28;;
30505;SDS011;17292;51.600;4.994;2023-03-23T14:23:15;41.40;;;6.18;;
30505;SDS011;17292;51.600;4.994;2023-03-23T14:25:42;34.50;;;5.90;;
30505;SDS011;17292;51.600;4.994;2023-03-23T14:28:18;35.83;;;6.03;;
30505;SDS011;17292;51.600;4.994;2023-03-23T14:30:47;39.45;;;6.88;;
30505;SDS011;17292;51.600;4.994;2023-03-23T14:33:13;45.88;;;5.75;;
30505;SDS011;17292;51.600;4.994;2023-03-23T14:35:40;52.92;;;7.35;;
30505;SDS011;17292;51.600;4.994;2023-03-23T14:38:19;39.83;;;6.43;;
30505;SDS011;17292;51.600;4.994;2023-03-23T14:40:46;40.08;;;5.35;;
30505;SDS011;17292;51.600;4.994;2023-03-23T14:43:13;35.28;;;6.28;;
30505;SDS011;17292;51.600;4.994;2023-03-23T14:45:40;43.30;;;5.70;;
30505;SDS011;17292;51.600;4.994;2023-03-23T14:48:06;39.00;;;6.75;;
30505;SDS011;17292;51.600;4.994;2023-03-23T14:53:03;47.72;;;6.28;;
30505;SDS011;17292;51.600;4.994;2023-03-23T14:55:35;46.70;;;6.63;;
30505;SDS011;17292;51.600;4.994;2023-03-23T14:58:07;48.35;;;6.32;;
30505;SDS011;17292;51.600;4.994;2023-03-23T15:00:35;29.60;;;5.20;;
30505;SDS011;17292;51.600;4.994;2023-03-23T15:03:03;35.95;;;5.45;;
30505;SDS011;17292;51.600;4.994;2023-03-23T15:05:31;34.00;;;5.70;;
30505;SDS011;17292;51.600;4.994;2023-03-23T15:08:03;31.75;;;5.40;;
30505;SDS011;17292;51.600;4.994;2023-03-23T15:10:30;39.45;;;6.50;;
30505;SDS011;17292;51.600;4.994;2023-03-23T15:12:57;43.55;;;6.35;;
30505;SDS011;17292;51.600;4.994;2023-03-23T15:15:30;50.33;;;6.25;;
30505;SDS011;17292;51.600;4.994;2023-03-23T15:17:57;47.40;;;6.50;;
30505;SDS011;17292;51.600;4.994;2023-03-23T15:20:27;49.00;;;8.02;;
30505;SDS011;17292;51.600;4.994;2023-03-23T15:22:54;34.05;;;5.45;;
30505;SDS011;17292;51.600;4.994;2023-03-23T15:25:28;40.65;;;6.78;;
30505;SDS011;17292;51.600;4.994;2023-03-23T15:28:06;39.63;;;6.35;;
30505;SDS011;17292;51.600;4.994;2023-03-23T15:30:35;47.45;;;6.15;;
30505;SDS011;17292;51.600;4.994;2023-03-23T15:33:09;39.00;;;6.43;;
30505;SDS011;17292;51.600;4.994;2023-03-23T15:35:37;38.80;;;6.53;;
30505;SDS011;17292;51.600;4.994;2023-03-23T15:38:05;30.48;;;5.82;;
30505;SDS011;17292;51.600;4.994;2023-03-23T15:40:33;44.30;;;6.53;;
30505;SDS011;17292;51.600;4.994;2023-03-23T15:43:07;38.65;;;6.43;;
30505;SDS011;17292;51.600;4.994;2023-03-23T15:45:34;32.92;;;5.10;;
30505;SDS011;17292;51.600;4.994;2023-03-23T15:48:12;35.88;;;5.57;;
30505;SDS011;17292;51.600;4.994;2023-03-23T15:50:39;32.45;;;5.82;;
30505;SDS011;17292;51.600;4.994;2023-03-23T15:53:19;36.10;;;5.60;;
30505;SDS011;17292;51.600;4.994;2023-03-23T15:55:46;32.63;;;5.43;;
30505;SDS011;17292;51.600;4.994;2023-03-23T15:58:12;43.40;;;6.28;;
30505;SDS011;17292;51.600;4.994;2023-03-23T16:00:39;32.03;;;5.45;;
30505;SDS011;17292;51.600;4.994;2023-03-23T16:03:06;31.27;;;5.93;;
30505;SDS011;17292;51.600;4.994;2023-03-23T16:05:33;34.55;;;5.72;;
30505;SDS011;17292;51.600;4.994;2023-03-23T16:08:00;26.75;;;5.00;;
30505;SDS011;17292;51.600;4.994;2023-03-23T16:10:28;34.33;;;5.70;;
30505;SDS011;17292;51.600;4.994;2023-03-23T16:12:54;31.45;;;5.88;;
30505;SDS011;17292;51.600;4.994;2023-03-23T16:15:21;38.40;;;5.53;;
30505;SDS011;17292;51.600;4.994;2023-03-23T16:17:47;32.00;;;5.50;;
30505;SDS011;17292;51.600;4.994;2023-03-23T16:20:14;30.30;;;5.20;;
30505;SDS011;17292;51.600;4.994;2023-03-23T16:22:41;26.80;;;5.35;;
30505;SDS011;17292;51.600;4.994;2023-03-23T16:25:08;35.95;;;5.22;;
30505;SDS011;17292;51.600;4.994;2023-03-23T16:27:35;33.88;;;5.75;;
30505;SDS011;17292;51.600;4.994;2023-03-23T16:30:08;30.88;;;5.72;;
30505;SDS011;17292;51.600;4.994;2023-03-23T16:32:35;39.33;;;6.38;;
30505;SDS011;17292;51.600;4.994;2023-03-23T16:35:02;28.33;;;5.50;;
30505;SDS011;17292;51.600;4.994;2023-03-23T16:37:28;39.30;;;6.30;;
30505;SDS011;17292;51.600;4.994;2023-03-23T16:39:57;24.98;;;5.07;;
30505;SDS011;17292;51.600;4.994;2023-03-23T16:42:23;32.55;;;5.80;;
30505;SDS011;17292;51.600;4.994;2023-03-23T16:44:49;31.10;;;5.65;;
30505;SDS011;17292;51.600;4.994;2023-03-23T16:47:16;32.35;;;5.35;;
30505;SDS011;17292;51.600;4.994;2023-03-23T16:49:49;33.17;;;6.18;;
30505;SDS011;17292;51.600;4.994;2023-03-23T16:52:16;27.15;;;5.22;;
30505;SDS011;17292;51.600;4.994;2023-03-23T16:54:42;26.27;;;5.47;;